Time;durP1;ratioP1;P1;durP2;ratioP2;P2;SDS_P1;SDS_P2;PMS_P1;PMS_P2;Temp;Humidity;BMP_temperature;BMP_pressure;BME280_temperature;BME280_humidity;BME280_pressure;Samples;Min_cycle;Max_cycle;Signal;HPM_P1;HPM_P2
2021/04/30 00:02:00;;;;;;;116.47;59.33;;;;;;;;;;5054875;28;20041;-62
2021/04/30 00:04:45;;;;;;;115.75;60.22;;;;;;;;;;5054622;28;20041;-62
2021/04/30 00:07:31;;;;;;;82.60;51.45;;;;;;;;;;5054891;28;20041;-62
2021/04/30 00:10:16;;;;;;;97.57;54.80;;;;;;;;;;5054518;28;20049;-62
2021/04/30 00:13:01;;;;;;;108.18;58.05;;;;;;;;;;5054655;28;20408;-62
2021/04/30 00:15:47;;;;;;;85.07;51.08;;;;;;;;;;5074115;28;20061;-62
2021/04/30 00:18:32;;;;;;;111.55;58.47;;;;;;;;;;5074614;28;20048;-62
2021/04/30 00:21:17;;;;;;;104.72;56.63;;;;;;;;;;5060614;28;20041;-62
2021/04/30 00:24:03;;;;;;;95.57;55.35;;;;;;;;;;5054640;28;20048;-62
2021/04/30 00:26:49;;;;;;;103.60;55.47;;;;;;;;;;5054478;28;20049;-62
2021/04/30 00:29:34;;;;;;;105.85;55.65;;;;;;;;;;5039023;28;20041;-62
2021/04/30 00:32:19;;;;;;;117.97;57.28;;;;;;;;;;5054406;28;20048;-62
2021/04/30 00:35:05;;;;;;;87.55;50.72;;;;;;;;;;5054291;28;20048;-62
2021/04/30 00:37:51;;;;;;;110.90;57.30;;;;;;;;;;5054096;28;20045;-62
2021/04/30 00:40:36;;;;;;;87.25;51.70;;;;;;;;;;5053722;28;20044;-62
2021/04/30 00:43:21;;;;;;;86.40;51.03;;;;;;;;;;5054123;28;20049;-62
2021/04/30 00:46:07;;;;;;;81.07;48.63;;;;;;;;;;5053923;28;20036;-62
2021/04/30 00:48:52;;;;;;;94.88;54.15;;;;;;;;;;5054138;28;20051;-62
2021/04/30 00:51:37;;;;;;;82.28;49.67;;;;;;;;;;5053643;28;20402;-62
2021/04/30 00:54:23;;;;;;;106.43;57.70;;;;;;;;;;5071273;28;20052;-62
2021/04/30 00:57:11;;;;;;;89.03;52.92;;;;;;;;;;5073857;28;20116;-62
2021/04/30 00:59:56;;;;;;;115.20;56.50;;;;;;;;;;5058947;28;20040;-62
2021/04/30 01:02:41;;;;;;;100.90;54.45;;;;;;;;;;5057766;28;20051;-62
2021/04/30 01:05:26;;;;;;;104.90;54.47;;;;;;;;;;5073826;28;20040;-62
2021/04/30 01:08:11;;;;;;;87.68;50.72;;;;;;;;;;5073667;28;20048;-62
2021/04/30 01:10:57;;;;;;;98.15;53.75;;;;;;;;;;5056297;28;20041;-62
2021/04/30 01:13:42;;;;;;;95.60;53.45;;;;;;;;;;5069073;28;20044;-62
2021/04/30 01:16:28;;;;;;;78.68;49.55;;;;;;;;;;5072012;28;20072;-62
2021/04/30 01:19:19;;;;;;;78.70;50.80;;;;;;;;;;5073396;28;20044;-62
2021/04/30 01:22:05;;;;;;;77.43;48.58;;;;;;;;;;5072918;28;20037;-62
2021/04/30 01:24:50;;;;;;;83.13;50.75;;;;;;;;;;5063448;28;20052;-62
2021/04/30 01:27:35;;;;;;;67.85;46.03;;;;;;;;;;5073125;28;20044;-62
2021/04/30 01:30:27;;;;;;;66.68;45.28;;;;;;;;;;5072972;28;20052;-62
2021/04/30 01:33:16;;;;;;;64.67;44.10;;;;;;;;;;5072144;28;20052;-62
2021/04/30 01:36:01;;;;;;;53.25;40.88;;;;;;;;;;5072656;28;20052;-62
2021/04/30 01:38:48;;;;;;;55.88;39.83;;;;;;;;;;5073002;28;20049;-62
2021/04/30 01:41:34;;;;;;;54.70;38.83;;;;;;;;;;5072452;28;20465;-62
2021/04/30 01:44:19;;;;;;;56.17;39.90;;;;;;;;;;5071842;28;20041;-62
2021/04/30 01:47:04;;;;;;;51.22;38.20;;;;;;;;;;5072637;28;20506;-62
2021/04/30 01:49:50;;;;;;;56.67;38.83;;;;;;;;;;5072521;28;20045;-62
2021/04/30 01:52:35;;;;;;;56.78;39.28;;;;;;;;;;5072543;28;20490;-62
2021/04/30 01:55:20;;;;;;;49.83;37.47;;;;;;;;;;5070569;28;20044;-62
2021/04/30 01:58:06;;;;;;;53.17;37.17;;;;;;;;;;5072345;28;20052;-62
2021/04/30 02:00:54;;;;;;;53.33;39.53;;;;;;;;;;5072206;28;20115;-62
2021/04/30 02:03:39;;;;;;;49.53;37.42;;;;;;;;;;5071424;28;20517;-62
2021/04/30 02:06:24;;;;;;;54.67;40.55;;;;;;;;;;5051503;28;20499;-62
2021/04/30 02:09:10;;;;;;;50.60;38.25;;;;;;;;;;5052336;28;20052;-62
2021/04/30 02:11:55;;;;;;;55.50;39.15;;;;;;;;;;5052239;28;20045;-62
2021/04/30 02:14:40;;;;;;;51.08;38.13;;;;;;;;;;5056558;28;20079;-62
2021/04/30 02:17:30;;;;;;;61.35;41.72;;;;;;;;;;5071196;28;20044;-62
2021/04/30 02:20:16;;;;;;;50.78;37.08;;;;;;;;;;5071879;28;20044;-62
2021/04/30 02:23:01;;;;;;;42.30;32.10;;;;;;;;;;5071913;28;20407;-62
2021/04/30 02:25:46;;;;;;;46.63;33.67;;;;;;;;;;5068964;28;20040;-62
2021/04/30 02:28:32;;;;;;;42.35;31.50;;;;;;;;;;5071230;28;20494;-62
2021/04/30 02:31:17;;;;;;;46.45;33.60;;;;;;;;;;5071791;28;20045;-62
2021/04/30 02:34:03;;;;;;;39.05;31.33;;;;;;;;;;5071952;28;20040;-62
2021/04/30 02:36:48;;;;;;;37.35;28.77;;;;;;;;;;5069135;28;20498;-62
2021/04/30 02:39:34;;;;;;;36.33;30.00;;;;;;;;;;5069549;28;20041;-62
2021/04/30 02:42:19;;;;;;;37.15;29.50;;;;;;;;;;5071828;28;20048;-62
2021/04/30 02:45:05;;;;;;;42.33;30.90;;;;;;;;;;5071707;28;20075;-62
2021/04/30 02:47:51;;;;;;;42.47;31.02;;;;;;;;;;5070053;28;20036;-62
2021/04/30 02:50:36;;;;;;;45.45;31.85;;;;;;;;;;5056487;28;20493;-62
2021/04/30 02:53:22;;;;;;;40.03;30.70;;;;;;;;;;5071645;28;20048;-62
2021/04/30 02:56:07;;;;;;;49.22;37.40;;;;;;;;;;5070938;28;20056;-62
2021/04/30 02:58:55;;;;;;;43.25;33.40;;;;;;;;;;5071069;28;20487;-62
2021/04/30 03:01:41;;;;;;;48.15;36.00;;;;;;;;;;5071180;28;20048;-62
2021/04/30 03:04:26;;;;;;;62.53;40.22;;;;;;;;;;5071557;28;20041;-62
2021/04/30 03:07:11;;;;;;;55.70;37.83;;;;;;;;;;5070699;28;20109;-62
2021/04/30 03:09:58;;;;;;;51.58;37.90;;;;;;;;;;5071256;28;20090;-62
2021/04/30 03:12:43;;;;;;;49.33;34.67;;;;;;;;;;5071541;28;20052;-62
2021/04/30 03:15:29;;;;;;;44.75;34.78;;;;;;;;;;5071481;28;20517;-62
2021/04/30 03:18:14;;;;;;;49.15;36.47;;;;;;;;;;5070423;28;20048;-62
2021/04/30 03:20:59;;;;;;;45.25;34.90;;;;;;;;;;5071357;28;20415;-62
2021/04/30 03:23:44;;;;;;;56.50;38.88;;;;;;;;;;5071396;28;20041;-62
2021/04/30 03:26:30;;;;;;;52.88;36.72;;;;;;;;;;5070039;28;20032;-62
2021/04/30 03:29:15;;;;;;;43.17;34.85;;;;;;;;;;5070915;28;20044;-62
2021/04/30 03:32:01;;;;;;;52.88;38.50;;;;;;;;;;5071396;28;20491;-62
2021/04/30 03:34:46;;;;;;;61.17;41.40;;;;;;;;;;5071223;28;20131;-62
2021/04/30 03:37:31;;;;;;;62.33;41.42;;;;;;;;;;5071521;28;20057;-62
2021/04/30 03:40:17;;;;;;;51.63;37.70;;;;;;;;;;5071091;28;20387;-62
2021/04/30 03:43:03;;;;;;;59.70;41.13;;;;;;;;;;5070070;28;20398;-62
2021/04/30 03:45:50;;;;;;;57.08;42.28;;;;;;;;;;5071639;28;20048;-62
2021/04/30 03:48:36;;;;;;;55.47;40.25;;;;;;;;;;5074927;28;20040;-62
2021/04/30 03:51:21;;;;;;;57.47;40.97;;;;;;;;;;5073103;28;20041;-62
2021/04/30 03:54:06;;;;;;;58.42;39.95;;;;;;;;;;5074243;28;20506;-62
2021/04/30 03:56:52;;;;;;;56.42;39.97;;;;;;;;;;5074988;28;20072;-62
2021/04/30 03:59:37;;;;;;;50.80;38.65;;;;;;;;;;5074518;28;20490;-62
2021/04/30 04:02:22;;;;;;;57.03;41.60;;;;;;;;;;5073641;28;20040;-62
2021/04/30 04:05:08;;;;;;;54.13;38.90;;;;;;;;;;5073404;28;20119;-62
2021/04/30 04:07:53;;;;;;;50.53;38.33;;;;;;;;;;5074631;28;20044;-62
2021/04/30 04:10:38;;;;;;;51.08;39.78;;;;;;;;;;5074309;28;20079;-62
2021/04/30 04:13:25;;;;;;;56.72;39.90;;;;;;;;;;5073686;28;20119;-62
2021/04/30 04:16:10;;;;;;;68.03;43.75;;;;;;;;;;5074410;28;20044;-62
2021/04/30 04:18:55;;;;;;;56.70;41.53;;;;;;;;;;5074444;28;20430;-62
2021/04/30 04:21:41;;;;;;;51.53;38.33;;;;;;;;;;5074181;28;20076;-62
2021/04/30 04:24:26;;;;;;;56.15;37.83;;;;;;;;;;5073062;28;20052;-62
2021/04/30 04:27:11;;;;;;;56.38;39.38;;;;;;;;;;5074350;28;20128;-62
2021/04/30 04:29:57;;;;;;;56.17;39.17;;;;;;;;;;5074136;28;20040;-62
2021/04/30 04:32:42;;;;;;;57.03;39.20;;;;;;;;;;5073556;28;20044;-62
2021/04/30 04:35:27;;;;;;;49.78;36.88;;;;;;;;;;5054517;28;20052;-62
2021/04/30 04:38:13;;;;;;;51.72;38.60;;;;;;;;;;5054418;28;20049;-62
2021/04/30 04:40:58;;;;;;;49.65;38.20;;;;;;;;;;5054084;28;20053;-62
2021/04/30 04:43:43;;;;;;;49.22;36.47;;;;;;;;;;5058980;28;20045;-62
2021/04/30 04:46:29;;;;;;;47.58;36.65;;;;;;;;;;5072523;28;20536;-62
2021/04/30 04:49:14;;;;;;;52.63;35.63;;;;;;;;;;5074077;28;20048;-62
2021/04/30 04:51:59;;;;;;;56.67;38.88;;;;;;;;;;5073920;28;20539;-62
2021/04/30 04:54:45;;;;;;;54.10;36.72;;;;;;;;;;5072440;28;20123;-62
2021/04/30 04:57:30;;;;;;;55.38;35.75;;;;;;;;;;5072129;28;20103;-62
2021/04/30 05:00:16;;;;;;;58.10;38.95;;;;;;;;;;5073473;28;20123;-62
2021/04/30 05:03:01;;;;;;;55.38;38.53;;;;;;;;;;5070726;28;20044;-62
2021/04/30 05:05:47;;;;;;;55.55;38.47;;;;;;;;;;5070550;28;20037;-62
2021/04/30 05:08:32;;;;;;;56.72;38.67;;;;;;;;;;5072749;28;20037;-62
2021/04/30 05:11:18;;;;;;;57.05;40.70;;;;;;;;;;5070868;28;20044;-62
2021/04/30 05:14:06;;;;;;;61.47;39.97;;;;;;;;;;5071374;28;20048;-62
2021/04/30 05:16:51;;;;;;;56.33;37.55;;;;;;;;;;5073343;28;20048;-62
2021/04/30 05:19:37;;;;;;;65.60;42.22;;;;;;;;;;5073364;28;20127;-62
2021/04/30 05:22:24;;;;;;;56.28;37.63;;;;;;;;;;5073357;28;20186;-62
2021/04/30 05:25:10;;;;;;;70.65;44.40;;;;;;;;;;5072278;28;20045;-62
2021/04/30 05:27:55;;;;;;;61.83;43.17;;;;;;;;;;5073383;28;20103;-62
2021/04/30 05:30:41;;;;;;;63.22;40.05;;;;;;;;;;5073097;28;20052;-62
2021/04/30 05:33:26;;;;;;;65.25;40.10;;;;;;;;;;5071555;28;20045;-63
2021/04/30 05:36:11;;;;;;;74.25;42.63;;;;;;;;;;5073218;28;20048;-63
2021/04/30 05:38:57;;;;;;;58.78;37.75;;;;;;;;;;5073139;28;20052;-63
2021/04/30 05:41:43;;;;;;;54.25;38.03;;;;;;;;;;5072773;28;20048;-63
2021/04/30 05:44:28;;;;;;;74.25;41.47;;;;;;;;;;5071285;28;20040;-63
2021/04/30 05:47:13;;;;;;;61.80;38.20;;;;;;;;;;5071822;28;20040;-62
2021/04/30 05:49:58;;;;;;;60.67;39.33;;;;;;;;;;5071449;28;20049;-63
2021/04/30 05:52:44;;;;;;;64.05;37.70;;;;;;;;;;5072196;28;20057;-63
2021/04/30 05:55:29;;;;;;;70.18;40.55;;;;;;;;;;5057248;28;20049;-63
2021/04/30 05:58:15;;;;;;;61.28;38.83;;;;;;;;;;5072656;28;20454;-63
2021/04/30 06:01:00;;;;;;;56.10;36.90;;;;;;;;;;5071009;28;20049;-63
2021/04/30 06:03:45;;;;;;;58.83;38.00;;;;;;;;;;5072459;28;20040;-63
2021/04/30 06:06:31;;;;;;;58.45;37.25;;;;;;;;;;5072285;28;20115;-63
2021/04/30 06:09:17;;;;;;;58.33;36.97;;;;;;;;;;5072135;28;20048;-63
2021/04/30 06:12:02;;;;;;;60.85;37.72;;;;;;;;;;5071015;28;20040;-63
2021/04/30 06:14:47;;;;;;;66.70;40.88;;;;;;;;;;5072317;28;20044;-63
2021/04/30 06:17:32;;;;;;;60.78;38.72;;;;;;;;;;5072384;28;20405;-63
2021/04/30 06:20:18;;;;;;;59.88;39.25;;;;;;;;;;5072035;28;20036;-63
2021/04/30 06:23:03;;;;;;;76.75;41.85;;;;;;;;;;5070123;28;20766;-63
2021/04/30 06:25:48;;;;;;;60.05;38.20;;;;;;;;;;5071694;28;20053;-63
2021/04/30 06:28:34;;;;;;;71.07;43.03;;;;;;;;;;5072108;28;20044;-63
2021/04/30 06:31:30;;;;;;;67.40;41.20;;;;;;;;;;5071870;28;20041;-63
2021/04/30 06:34:15;;;;;;;62.40;38.42;;;;;;;;;;5071605;28;20052;-63
2021/04/30 06:37:01;;;;;;;68.70;38.00;;;;;;;;;;5071967;28;20045;-63
2021/04/30 06:39:46;;;;;;;54.67;35.60;;;;;;;;;;5071655;28;20425;-63
2021/04/30 06:42:32;;;;;;;60.00;34.60;;;;;;;;;;5070412;28;20044;-62
2021/04/30 06:45:17;;;;;;;82.38;40.92;;;;;;;;;;5071902;28;20045;-63
2021/04/30 06:48:02;;;;;;;68.18;38.30;;;;;;;;;;5071818;28;20045;-63
2021/04/30 06:50:48;;;;;;;88.63;44.75;;;;;;;;;;5071683;28;20040;-63
2021/04/30 06:53:33;;;;;;;60.78;36.97;;;;;;;;;;5070440;28;20510;-63
2021/04/30 06:56:18;;;;;;;55.72;35.83;;;;;;;;;;5071754;28;20048;-63
2021/04/30 06:59:04;;;;;;;56.15;31.08;;;;;;;;;;5071736;28;20044;-63
2021/04/30 07:01:49;;;;;;;59.47;34.47;;;;;;;;;;5069792;28;20048;-63
2021/04/30 07:04:34;;;;;;;54.83;33.78;;;;;;;;;;5071318;28;20410;-63
2021/04/30 07:07:20;;;;;;;59.80;36.88;;;;;;;;;;5071948;28;20056;-63
2021/04/30 07:10:05;;;;;;;65.00;37.63;;;;;;;;;;5071542;28;20045;-63
2021/04/30 07:12:51;;;;;;;51.88;32.58;;;;;;;;;;5071142;28;20045;-63
2021/04/30 07:15:36;;;;;;;58.90;33.78;;;;;;;;;;5071675;28;20479;-63
2021/04/30 07:18:22;;;;;;;47.20;29.60;;;;;;;;;;5071653;28;20487;-63
2021/04/30 07:21:07;;;;;;;63.33;37.05;;;;;;;;;;5070860;28;20110;-63
2021/04/30 07:23:52;;;;;;;53.85;31.83;;;;;;;;;;5074951;28;20041;-63
2021/04/30 07:26:37;;;;;;;47.58;29.88;;;;;;;;;;5075654;28;20044;-62
2021/04/30 07:29:23;;;;;;;46.72;29.27;;;;;;;;;;5075424;28;20048;-63
2021/04/30 07:32:08;;;;;;;48.17;30.80;;;;;;;;;;5074502;28;20502;-63
2021/04/30 07:34:53;;;;;;;56.65;30.17;;;;;;;;;;5075062;28;20048;-63
2021/04/30 07:37:38;;;;;;;46.08;27.50;;;;;;;;;;5075422;28;20402;-63
2021/04/30 07:40:24;;;;;;;52.17;29.80;;;;;;;;;;5074770;28;20123;-64
2021/04/30 07:43:14;;;;;;;55.55;30.67;;;;;;;;;;5074035;28;20045;-63
2021/04/30 07:45:59;;;;;;;56.53;29.38;;;;;;;;;;5075020;28;20048;-62
2021/04/30 07:48:45;;;;;;;43.67;27.80;;;;;;;;;;5075180;28;20483;-63
2021/04/30 07:51:30;;;;;;;53.63;31.23;;;;;;;;;;5074954;28;20049;-63
2021/04/30 07:54:17;;;;;;;47.85;30.27;;;;;;;;;;5073774;28;20048;-64
2021/04/30 07:57:05;;;;;;;40.38;27.67;;;;;;;;;;5074963;28;20078;-64
2021/04/30 07:59:50;;;;;;;47.45;27.88;;;;;;;;;;5074644;28;20502;-62
2021/04/30 08:02:35;;;;;;;43.25;26.65;;;;;;;;;;5074030;28;20427;-62
2021/04/30 08:05:21;;;;;;;42.30;27.15;;;;;;;;;;5074653;28;20037;-64
2021/04/30 08:08:06;;;;;;;47.60;29.17;;;;;;;;;;5074820;28;20068;-63
2021/04/30 08:10:51;;;;;;;40.28;27.13;;;;;;;;;;5074645;28;20131;-63
2021/04/30 08:13:37;;;;;;;34.92;23.05;;;;;;;;;;5073175;28;20044;-63
2021/04/30 08:16:22;;;;;;;27.17;19.15;;;;;;;;;;5073568;28;20041;-64
2021/04/30 08:19:08;;;;;;;33.30;22.00;;;;;;;;;;5074678;28;20048;-63
2021/04/30 08:21:56;;;;;;;30.52;19.55;;;;;;;;;;5074604;28;20041;-63
2021/04/30 08:24:41;;;;;;;29.40;19.20;;;;;;;;;;5072941;28;20044;-63
2021/04/30 08:27:27;;;;;;;25.50;18.15;;;;;;;;;;5073732;28;20044;-63
2021/04/30 08:30:12;;;;;;;19.08;14.25;;;;;;;;;;5074228;28;20052;-63
2021/04/30 08:32:58;;;;;;;20.42;14.60;;;;;;;;;;5074171;28;20509;-64
2021/04/30 08:35:43;;;;;;;21.67;17.25;;;;;;;;;;5073907;28;20140;-64
2021/04/30 08:38:28;;;;;;;21.35;16.10;;;;;;;;;;5074313;28;20049;-63
2021/04/30 08:41:14;;;;;;;19.17;14.10;;;;;;;;;;5073877;28;20071;-63
2021/04/30 08:44:00;;;;;;;23.00;15.18;;;;;;;;;;5058422;28;20048;-63
2021/04/30 08:46:45;;;;;;;20.00;14.75;;;;;;;;;;5073926;28;20573;-62
2021/04/30 08:49:30;;;;;;;19.20;14.55;;;;;;;;;;5073805;28;20045;-63
2021/04/30 08:52:17;;;;;;;19.98;13.93;;;;;;;;;;5074017;28;20045;-63
2021/04/30 08:55:07;;;;;;;19.35;14.07;;;;;;;;;;5072813;28;20079;-63
2021/04/30 08:57:54;;;;;;;19.98;13.68;;;;;;;;;;5073299;28;20542;-63
2021/04/30 09:00:39;;;;;;;18.85;14.77;;;;;;;;;;5071800;28;20506;-63
2021/04/30 09:03:25;;;;;;;17.92;11.50;;;;;;;;;;5073755;28;20041;-63
2021/04/30 09:06:18;;;;;;;19.52;13.02;;;;;;;;;;5073472;28;20044;-63
2021/04/30 09:09:07;;;;;;;15.20;12.30;;;;;;;;;;5059984;28;20041;-63
2021/04/30 09:11:53;;;;;;;18.42;12.65;;;;;;;;;;5072789;28;20506;-63
2021/04/30 09:14:38;;;;;;;19.10;13.43;;;;;;;;;;5072935;28;20053;-63
2021/04/30 09:17:23;;;;;;;22.25;13.95;;;;;;;;;;5073473;28;20502;-63
2021/04/30 09:20:09;;;;;;;14.88;11.50;;;;;;;;;;5073248;28;20044;-63
2021/04/30 09:22:54;;;;;;;15.10;12.43;;;;;;;;;;5071768;28;20415;-63
2021/04/30 09:25:46;;;;;;;23.58;14.25;;;;;;;;;;5072791;28;20052;-62
2021/04/30 09:28:31;;;;;;;17.73;11.80;;;;;;;;;;5073321;28;20040;-62
2021/04/30 09:31:31;;;;;;;15.30;10.10;;;;;;;;;;5072942;28;20119;-64
2021/04/30 09:34:21;;;;;;;15.68;10.90;;;;;;;;;;5038343;28;20045;-63
2021/04/30 09:37:13;;;;;;;15.93;11.57;;;;;;;;;;5053185;28;20041;-63
2021/04/30 09:39:58;;;;;;;16.38;12.82;;;;;;;;;;5052785;28;20037;-64
2021/04/30 09:42:45;;;;;;;18.55;12.43;;;;;;;;;;5053471;28;20116;-63
2021/04/30 09:45:31;;;;;;;18.30;13.82;;;;;;;;;;5070834;28;20056;-63
2021/04/30 09:48:17;;;;;;;17.13;11.93;;;;;;;;;;5073050;28;20052;-63
2021/04/30 09:51:02;;;;;;;19.10;11.93;;;;;;;;;;5072493;28;20111;-63
2021/04/30 09:53:48;;;;;;;18.42;12.27;;;;;;;;;;5072807;28;20527;-63
2021/04/30 09:56:33;;;;;;;17.55;12.50;;;;;;;;;;5072781;28;20449;-63
2021/04/30 09:59:25;;;;;;;16.35;11.00;;;;;;;;;;5071585;28;20052;-63
2021/04/30 10:02:11;;;;;;;11.35;9.73;;;;;;;;;;5072617;28;20049;-63
2021/04/30 10:04:57;;;;;;;11.68;8.75;;;;;;;;;;5072361;28;20071;-63
2021/04/30 10:07:42;;;;;;;14.55;10.95;;;;;;;;;;5072619;28;20415;-63
2021/04/30 10:10:28;;;;;;;12.43;10.10;;;;;;;;;;5069968;28;20071;-63
2021/04/30 10:13:13;;;;;;;12.68;11.38;;;;;;;;;;5066942;28;20040;-63
2021/04/30 10:15:58;;;;;;;15.98;11.20;;;;;;;;;;5069966;28;20072;-63
2021/04/30 10:18:44;;;;;;;17.48;12.30;;;;;;;;;;5070604;28;20044;-69
2021/04/30 10:21:30;;;;;;;15.65;11.63;;;;;;;;;;5070845;28;20045;-63
2021/04/30 10:24:16;;;;;;;13.85;10.52;;;;;;;;;;5053066;28;20082;-63
2021/04/30 10:27:01;;;;;;;17.95;12.30;;;;;;;;;;5070088;28;20048;-63
2021/04/30 10:29:48;;;;;;;15.45;12.75;;;;;;;;;;5055740;28;20048;-63
2021/04/30 10:32:34;;;;;;;26.85;14.98;;;;;;;;;;5071826;28;20045;-63
2021/04/30 10:35:38;;;;;;;17.67;11.43;;;;;;;;;;5056795;28;20141;-63
2021/04/30 10:38:24;;;;;;;12.52;9.90;;;;;;;;;;5053719;28;20123;-64
2021/04/30 10:41:10;;;;;;;15.00;11.13;;;;;;;;;;5055446;28;20053;-64
2021/04/30 10:44:14;;;;;;;11.65;10.35;;;;;;;;;;5066675;28;20044;-64
2021/04/30 10:47:06;;;;;;;11.43;10.25;;;;;;;;;;5051919;28;20049;-64
2021/04/30 10:50:11;;;;;;;14.35;11.57;;;;;;;;;;5068578;28;20040;-63
2021/04/30 10:52:56;;;;;;;12.68;10.27;;;;;;;;;;5072006;28;20044;-63
2021/04/30 10:55:44;;;;;;;10.90;9.75;;;;;;;;;;5055969;28;20044;-63
2021/04/30 10:58:33;;;;;;;13.68;11.77;;;;;;;;;;5071022;28;20064;-63
2021/04/30 11:01:21;;;;;;;12.38;11.00;;;;;;;;;;5069796;28;20040;-63
2021/04/30 11:04:15;;;;;;;14.52;11.05;;;;;;;;;;5071295;28;20083;-63
2021/04/30 11:07:03;;;;;;;11.95;10.15;;;;;;;;;;5071607;28;20414;-63
2021/04/30 11:09:48;;;;;;;11.77;10.57;;;;;;;;;;5070112;28;20045;-63
2021/04/30 11:12:34;;;;;;;14.68;10.63;;;;;;;;;;5070526;28;20110;-63
2021/04/30 11:15:19;;;;;;;10.85;9.82;;;;;;;;;;5070774;28;20045;-63
2021/04/30 11:18:05;;;;;;;13.48;10.23;;;;;;;;;;5069056;28;20051;-63
2021/04/30 11:21:00;;;;;;;11.73;9.63;;;;;;;;;;5067401;28;20040;-63
2021/04/30 11:23:50;;;;;;;13.38;11.98;;;;;;;;;;5068608;28;20048;-63
2021/04/30 11:26:35;;;;;;;11.85;10.65;;;;;;;;;;5049709;28;20106;-63
2021/04/30 11:29:25;;;;;;;14.75;11.82;;;;;;;;;;5069706;28;20178;-63
2021/04/30 11:32:24;;;;;;;12.18;10.80;;;;;;;;;;5054482;28;20486;-63
2021/04/30 11:35:10;;;;;;;12.15;10.70;;;;;;;;;;5071362;28;20414;-63
2021/04/30 11:37:55;;;;;;;11.63;10.43;;;;;;;;;;5070418;28;20045;-63
2021/04/30 11:40:41;;;;;;;13.10;11.70;;;;;;;;;;5069432;28;20044;-63
2021/04/30 11:43:26;;;;;;;13.57;11.25;;;;;;;;;;5070331;28;20048;-63
2021/04/30 11:46:11;;;;;;;11.20;9.68;;;;;;;;;;5071273;28;20036;-63
2021/04/30 11:48:57;;;;;;;11.60;10.40;;;;;;;;;;5071528;28;20049;-63
2021/04/30 11:51:43;;;;;;;11.88;10.07;;;;;;;;;;5070337;28;20037;-66
2021/04/30 11:54:32;;;;;;;17.98;11.65;;;;;;;;;;5071368;28;20058;-63
2021/04/30 11:57:17;;;;;;;12.45;11.13;;;;;;;;;;5071264;28;20502;-63
2021/04/30 12:00:04;;;;;;;12.85;11.27;;;;;;;;;;5071210;28;20052;-63
2021/04/30 12:02:58;;;;;;;12.10;10.90;;;;;;;;;;5070827;28;20048;-63
2021/04/30 12:05:44;;;;;;;13.05;11.63;;;;;;;;;;5071066;28;20139;-63
2021/04/30 12:08:29;;;;;;;11.52;10.05;;;;;;;;;;5074068;28;20045;-63
2021/04/30 12:11:24;;;;;;;12.43;10.30;;;;;;;;;;5058716;28;20041;-63
2021/04/30 12:14:09;;;;;;;11.50;10.30;;;;;;;;;;5073319;28;20053;-62
2021/04/30 12:17:00;;;;;;;12.60;11.43;;;;;;;;;;5074583;28;20642;-63
2021/04/30 12:20:09;;;;;;;13.45;11.57;;;;;;;;;;5074249;28;20071;-63
2021/04/30 12:22:55;;;;;;;12.82;11.52;;;;;;;;;;5073768;28;20048;-62
2021/04/30 12:25:43;;;;;;;14.48;12.65;;;;;;;;;;5074379;28;20048;-62
2021/04/30 12:28:30;;;;;;;12.75;11.45;;;;;;;;;;5074345;28;20052;-61
2021/04/30 12:31:15;;;;;;;13.82;11.90;;;;;;;;;;5074228;28;20106;-62
2021/04/30 12:34:00;;;;;;;21.95;15.32;;;;;;;;;;5073238;28;20052;-63
2021/04/30 12:36:46;;;;;;;15.43;13.32;;;;;;;;;;5074358;28;20048;-63
2021/04/30 12:39:31;;;;;;;19.83;14.70;;;;;;;;;;5059183;28;20059;-63
2021/04/30 12:42:16;;;;;;;17.20;14.73;;;;;;;;;;5072058;28;20052;-63
2021/04/30 12:45:01;;;;;;;19.30;15.38;;;;;;;;;;5073983;28;20483;-63
2021/04/30 12:47:47;;;;;;;18.75;12.95;;;;;;;;;;5074225;28;20048;-62
2021/04/30 12:50:33;;;;;;;23.25;17.52;;;;;;;;;;5073830;28;20097;-62
2021/04/30 12:53:19;;;;;;;21.30;18.02;;;;;;;;;;5058060;28;20396;-63
2021/04/30 12:56:04;;;;;;;19.15;17.00;;;;;;;;;;5057832;28;20498;-63
2021/04/30 12:59:07;;;;;;;19.00;16.92;;;;;;;;;;5073944;28;20053;-63
2021/04/30 13:02:19;;;;;;;22.10;19.80;;;;;;;;;;5074062;28;20048;-63
2021/04/30 13:05:04;;;;;;;21.90;18.63;;;;;;;;;;5072779;28;20109;-64
2021/04/30 13:07:50;;;;;;;21.33;19.08;;;;;;;;;;5074052;28;20044;-63
2021/04/30 13:10:35;;;;;;;23.30;20.88;;;;;;;;;;5073369;28;20044;-63
2021/04/30 13:13:20;;;;;;;18.05;15.45;;;;;;;;;;5072766;28;20139;-63
2021/04/30 13:16:06;;;;;;;20.50;15.15;;;;;;;;;;5073212;28;20044;-63
2021/04/30 13:18:51;;;;;;;17.33;15.18;;;;;;;;;;5072590;28;20098;-63
2021/04/30 13:21:37;;;;;;;18.88;15.68;;;;;;;;;;5057364;28;20045;-63
2021/04/30 13:24:23;;;;;;;17.50;14.35;;;;;;;;;;5072065;28;20048;-63
2021/04/30 13:27:10;;;;;;;17.90;14.98;;;;;;;;;;5073550;28;20064;-63
2021/04/30 13:29:55;;;;;;;15.93;14.15;;;;;;;;;;5073116;28;20067;-63
2021/04/30 13:32:40;;;;;;;16.60;14.77;;;;;;;;;;5072361;28;20041;-64
2021/04/30 13:35:26;;;;;;;15.50;13.88;;;;;;;;;;5073239;28;20082;-63
2021/04/30 13:38:11;;;;;;;15.70;13.75;;;;;;;;;;5058332;28;20056;-63
2021/04/30 13:41:16;;;;;;;17.08;13.85;;;;;;;;;;5072740;28;20044;-63
2021/04/30 13:44:15;;;;;;;15.90;14.27;;;;;;;;;;5073074;28;20052;-63
2021/04/30 13:47:00;;;;;;;15.20;12.98;;;;;;;;;;5072221;28;20044;-63
2021/04/30 13:49:49;;;;;;;15.40;13.80;;;;;;;;;;5071296;28;20723;-63
2021/04/30 13:52:35;;;;;;;16.58;14.95;;;;;;;;;;5071332;28;20045;-63
2021/04/30 13:55:20;;;;;;;15.35;13.75;;;;;;;;;;5052732;28;20124;-63
2021/04/30 13:58:05;;;;;;;15.93;14.25;;;;;;;;;;5053011;28;20056;-63
2021/04/30 14:00:50;;;;;;;17.35;13.57;;;;;;;;;;5052481;28;20439;-63
2021/04/30 14:03:36;;;;;;;21.80;13.88;;;;;;;;;;5071050;28;20135;-63
2021/04/30 14:06:21;;;;;;;16.30;14.68;;;;;;;;;;5072321;28;20056;-63
2021/04/30 14:09:07;;;;;;;16.00;14.50;;;;;;;;;;5072528;28;20044;-63
2021/04/30 14:11:53;;;;;;;18.95;17.15;;;;;;;;;;5071594;28;20048;-63
2021/04/30 14:14:38;;;;;;;18.80;16.70;;;;;;;;;;5071651;28;20071;-63
2021/04/30 14:17:24;;;;;;;20.90;18.77;;;;;;;;;;5072528;28;20048;-63
2021/04/30 14:20:10;;;;;;;20.88;18.60;;;;;;;;;;5072006;28;20503;-63
2021/04/30 14:22:55;;;;;;;18.10;16.33;;;;;;;;;;5071189;28;20510;-63
2021/04/30 14:25:40;;;;;;;17.73;15.90;;;;;;;;;;5072083;28;20071;-63
2021/04/30 14:28:25;;;;;;;20.92;16.13;;;;;;;;;;5072331;28;20511;-63
2021/04/30 14:31:12;;;;;;;16.40;14.57;;;;;;;;;;5071994;28;20048;-63
2021/04/30 14:33:58;;;;;;;20.10;16.02;;;;;;;;;;5070637;28;20078;-63
2021/04/30 14:36:43;;;;;;;17.17;15.48;;;;;;;;;;5071490;28;20049;-63
2021/04/30 14:39:28;;;;;;;17.48;15.68;;;;;;;;;;5071827;28;20041;-63
2021/04/30 14:42:14;;;;;;;14.80;13.35;;;;;;;;;;5072153;28;20044;-63
2021/04/30 14:44:59;;;;;;;16.70;15.00;;;;;;;;;;5035711;28;20045;-63
2021/04/30 14:47:44;;;;;;;16.98;15.18;;;;;;;;;;5051841;28;20116;-63
2021/04/30 14:50:30;;;;;;;17.27;14.13;;;;;;;;;;5051852;28;20055;-63
2021/04/30 14:53:16;;;;;;;16.58;14.93;;;;;;;;;;5053464;28;20053;-63
2021/04/30 14:56:01;;;;;;;18.23;16.35;;;;;;;;;;5071979;28;20052;-63
2021/04/30 14:58:46;;;;;;;15.75;14.25;;;;;;;;;;5071894;28;20044;-63
2021/04/30 15:01:37;;;;;;;16.27;14.63;;;;;;;;;;5055699;28;20048;-62
2021/04/30 15:04:23;;;;;;;16.83;15.18;;;;;;;;;;5071628;28;20048;-63
2021/04/30 15:07:08;;;;;;;17.35;15.63;;;;;;;;;;5072011;28;20049;-62
2021/04/30 15:09:57;;;;;;;16.02;14.05;;;;;;;;;;5071555;28;20049;-63
2021/04/30 15:12:42;;;;;;;16.55;14.65;;;;;;;;;;5070419;28;20618;-63
2021/04/30 15:15:27;;;;;;;15.25;13.63;;;;;;;;;;5071642;28;20507;-63
2021/04/30 15:18:13;;;;;;;16.33;14.38;;;;;;;;;;5071355;28;20056;-63
2021/04/30 15:20:58;;;;;;;16.27;14.68;;;;;;;;;;5068315;28;20048;-63
2021/04/30 15:23:44;;;;;;;17.45;14.75;;;;;;;;;;5069004;28;20415;-63
2021/04/30 15:26:29;;;;;;;17.38;15.68;;;;;;;;;;5068422;28;20047;-62
2021/04/30 15:29:15;;;;;;;18.25;15.25;;;;;;;;;;5069513;28;20057;-64
2021/04/30 15:32:01;;;;;;;17.95;16.08;;;;;;;;;;5070580;28;20045;-61
2021/04/30 15:34:46;;;;;;;16.90;15.10;;;;;;;;;;5071372;28;20045;-63
2021/04/30 15:37:32;;;;;;;16.02;14.30;;;;;;;;;;5071284;28;20076;-63
2021/04/30 15:40:18;;;;;;;15.93;14.38;;;;;;;;;;5071032;28;20495;-63
2021/04/30 15:43:03;;;;;;;15.05;13.55;;;;;;;;;;5073036;28;20048;-62
2021/04/30 15:45:50;;;;;;;16.55;14.95;;;;;;;;;;5075126;28;20048;-63
2021/04/30 15:48:36;;;;;;;15.85;14.32;;;;;;;;;;5075216;28;20040;-63
2021/04/30 15:51:21;;;;;;;16.95;15.35;;;;;;;;;;5074858;28;20496;-61
2021/04/30 15:54:07;;;;;;;334.55;109.03;;;;;;;;;;5074175;28;20495;-60
2021/04/30 15:56:53;;;;;;;30.05;19.50;;;;;;;;;;5074953;28;20044;-58
2021/04/30 15:59:38;;;;;;;22.30;16.65;;;;;;;;;;5074953;28;20127;-61
2021/04/30 16:02:23;;;;;;;39.08;23.25;;;;;;;;;;5073713;28;20502;-60
2021/04/30 16:05:09;;;;;;;18.42;16.58;;;;;;;;;;5073196;28;20147;-60
2021/04/30 16:07:54;;;;;;;18.60;16.00;;;;;;;;;;5074761;28;20045;-61